»·PEaware :: DAL5544 KLAX-KSAN

DAL5544 :: KLAX-KSAN

FLIGHT INFORMATION

Flight Status: Arrived
Operator:
Delta Air Lines
More flights by this operator :: More flights under this callsign
Pilot: Blake E. (25579)
Aircraft: BOEING 737-800
(B738)
More flights by this aircraft type
Origin: KLAX Los Angeles Intl
United States
Destination: KSAN San Diego Intl-Lindbergh
United States
More flights between these airports :: More routes between these airports
Route: LAXX1 MZB DCT
File this flight plan on PilotEdge
Remarks: PLANNED OPTIMUM FLIGHT LEVEL
Altitude:
(Current/Filed)
11,000ft
Speed:
(Current/Filed)
250kts
Departed: 31-Mar-20 06:19 PM
Arrived: 31-Mar-20 06:52 PM
Distance/Time
Traveled:
95nm/0:33
Distance/Time
To Go:
Arrived

Flight Plot

Page will automatically refresh every two minutes.

Flight plan parsing failed; only flown route is shown


Map Options




Map Legend


Flown Route
Filed Route
Departure Airport
Arrival Airport
Navaid (VOR, NDB)
Fix

Horizontal Profiles

Position Reports

Time Latitude Longitude Heading Altitude Ground
Speed
31-Mar-20 17:38 33.946202 -118.404797 86 127ft 0kts
31-Mar-20 17:39 33.946202 -118.404797 86 127ft 0kts
31-Mar-20 17:41 33.946202 -118.404797 86 127ft 0kts
31-Mar-20 17:42 33.946202 -118.404797 86 127ft 0kts
31-Mar-20 17:43 33.946202 -118.404797 86 127ft 0kts
31-Mar-20 17:44 33.946202 -118.404797 86 127ft 0kts
31-Mar-20 17:45 33.946202 -118.404797 86 127ft 0kts
31-Mar-20 17:46 33.946202 -118.404797 86 127ft 0kts
31-Mar-20 17:47 33.946202 -118.404797 86 127ft 0kts
31-Mar-20 17:48 33.946202 -118.404797 86 127ft 0kts
31-Mar-20 17:49 33.946202 -118.404797 86 127ft 0kts
31-Mar-20 17:50 33.946202 -118.404797 86 127ft 0kts
31-Mar-20 17:51 33.946202 -118.404797 86 127ft 0kts
31-Mar-20 17:52 33.946202 -118.404797 86 127ft 0kts
31-Mar-20 17:53 33.946202 -118.404797 86 127ft 0kts
31-Mar-20 17:54 33.946202 -118.404797 86 127ft 0kts
31-Mar-20 17:55 33.946202 -118.404797 86 127ft 0kts
31-Mar-20 17:56 33.946202 -118.404797 86 127ft 0kts
31-Mar-20 17:57 33.946202 -118.404797 86 127ft 0kts
31-Mar-20 17:58 33.946202 -118.404797 86 127ft 0kts
31-Mar-20 17:59 33.946202 -118.404797 86 127ft 0kts
31-Mar-20 18:00 33.946202 -118.404797 86 127ft 0kts
31-Mar-20 18:00 33.946202 -118.404797 86 127ft 0kts
31-Mar-20 18:01 33.946200 -118.404851 86 127ft 2kts
31-Mar-20 18:03 33.946081 -118.405578 14 127ft 2kts
31-Mar-20 18:04 33.945960 -118.405571 352 127ft 0kts
31-Mar-20 18:04 33.945960 -118.405571 352 127ft 0kts
31-Mar-20 18:05 33.945960 -118.405571 352 127ft 0kts
31-Mar-20 18:06 33.945960 -118.405571 352 127ft 0kts
31-Mar-20 18:07 33.945960 -118.405571 352 127ft 0kts
31-Mar-20 18:08 33.945960 -118.405571 352 127ft 0kts
31-Mar-20 18:09 33.945960 -118.405571 352 127ft 0kts
31-Mar-20 18:10 33.945960 -118.405571 352 127ft 0kts
31-Mar-20 18:11 33.947823 -118.405899 349 128ft 8kts
31-Mar-20 18:12 33.948803 -118.404463 82 127ft 9kts
31-Mar-20 18:13 33.949199 -118.400604 82 122ft 0kts
31-Mar-20 18:14 33.949380 -118.399354 56 121ft 10kts
31-Mar-20 18:15 33.949433 -118.399278 44 121ft 0kts
31-Mar-20 18:16 33.949433 -118.399277 44 121ft 0kts
31-Mar-20 18:17 33.949480 -118.399233 35 120ft 5kts
31-Mar-20 18:18 33.948119 -118.421379 262 252ft 172kts
31-Mar-20 18:19 33.940864 -118.484790 263 2299ft 223kts
31-Mar-20 18:20 33.932296 -118.562574 263 2998ft 233kts
31-Mar-20 18:21 33.923410 -118.644591 263 2999ft 254kts
31-Mar-20 18:22 33.873805 -118.682165 154 4703ft 267kts
31-Mar-20 18:23 33.812315 -118.625682 141 7684ft 289kts
31-Mar-20 18:24 33.751580 -118.560215 123 10701ft 300kts
31-Mar-20 18:25 33.705503 -118.474260 121 11008ft 304kts
31-Mar-20 18:26 33.659776 -118.388091 121 11007ft 305kts
31-Mar-20 18:27 33.614561 -118.302770 121 10999ft 305kts
31-Mar-20 18:28 33.569072 -118.216611 121 11003ft 305kts
31-Mar-20 18:29 33.523769 -118.130503 121 11015ft 306kts
31-Mar-20 18:30 33.478469 -118.044132 121 11015ft 306kts
31-Mar-20 18:31 33.428339 -117.948373 121 11018ft 369kts
31-Mar-20 18:32 33.373928 -117.844483 121 10983ft 366kts
31-Mar-20 18:33 33.319836 -117.741520 121 10982ft 366kts
31-Mar-20 18:34 33.265774 -117.638880 121 10982ft 365kts
31-Mar-20 18:35 33.213660 -117.534702 105 10984ft 364kts
31-Mar-20 18:36 33.150476 -117.446186 149 10979ft 366kts
31-Mar-20 18:37 33.063412 -117.386459 150 10970ft 340kts
31-Mar-20 18:38 32.984024 -117.335079 153 9729ft 312kts
31-Mar-20 18:39 32.911028 -117.292604 155 8410ft 283kts
31-Mar-20 18:40 32.839709 -117.252814 155 7115ft 281kts
31-Mar-20 18:41 32.797603 -117.182322 101 6357ft 279kts
31-Mar-20 18:42 32.782756 -117.092465 101 5352ft 275kts
31-Mar-20 18:43 32.768413 -117.003502 101 4989ft 274kts
31-Mar-20 18:44 32.754612 -116.918956 114 4970ft 237kts
31-Mar-20 18:45 32.703760 -116.902582 201 5056ft 195kts
31-Mar-20 18:46 32.671672 -116.950868 276 4257ft 200kts
31-Mar-20 18:47 32.688661 -117.013329 289 3125ft 195kts
31-Mar-20 18:48 32.705067 -117.074002 283 2563ft 184kts
31-Mar-20 18:49 32.718539 -117.129287 285 1195ft 165kts
31-Mar-20 18:50 32.729817 -117.174527 285 154ft 137kts
31-Mar-20 18:51 32.735201 -117.197957 245 20ft 12kts
31-Mar-20 18:52 32.733911 -117.196963 209 20ft 2kts
31-Mar-20 18:53 32.733693 -117.197696 254 20ft 0kts

Navigation Log

Ident Type
Flight plan parsing failed, navigation log unavailable